sensor_id;sensor_type;location;lat;lon;timestamp;P1;durP1;ratioP1;P2;durP2;ratioP2
40847;SDS011;26570;50.962;5.340;2023-01-26T01:01:37;154.87;;;48.10;;
40847;SDS011;26570;50.962;5.340;2023-01-26T01:04:47;156.83;;;49.47;;
40847;SDS011;26570;50.962;5.340;2023-01-26T01:07:32;156.27;;;48.73;;
40847;SDS011;26570;50.962;5.340;2023-01-26T01:10:18;148.07;;;48.00;;
40847;SDS011;26570;50.962;5.340;2023-01-26T01:13:05;166.57;;;48.80;;
40847;SDS011;26570;50.962;5.340;2023-01-26T01:15:50;164.67;;;50.87;;
40847;SDS011;26570;50.962;5.340;2023-01-26T01:18:35;173.87;;;48.33;;
40847;SDS011;26570;50.962;5.340;2023-01-26T01:21:22;167.77;;;51.07;;
40847;SDS011;26570;50.962;5.340;2023-01-26T01:24:07;168.27;;;51.67;;
40847;SDS011;26570;50.962;5.340;2023-01-26T01:27:15;172.03;;;49.67;;
40847;SDS011;26570;50.962;5.340;2023-01-26T01:30:01;163.10;;;50.07;;
40847;SDS011;26570;50.962;5.340;2023-01-26T01:32:51;169.10;;;50.73;;
40847;SDS011;26570;50.962;5.340;2023-01-26T01:35:36;164.80;;;48.70;;
40847;SDS011;26570;50.962;5.340;2023-01-26T01:38:21;181.90;;;52.70;;
40847;SDS011;26570;50.962;5.340;2023-01-26T01:41:29;172.77;;;50.83;;
40847;SDS011;26570;50.962;5.340;2023-01-26T01:47:02;169.57;;;49.03;;
40847;SDS011;26570;50.962;5.340;2023-01-26T01:49:49;173.57;;;48.50;;
40847;SDS011;26570;50.962;5.340;2023-01-26T01:52:38;176.17;;;48.70;;
40847;SDS011;26570;50.962;5.340;2023-01-26T01:55:24;174.30;;;49.50;;
40847;SDS011;26570;50.962;5.340;2023-01-26T01:58:09;183.50;;;49.17;;
40847;SDS011;26570;50.962;5.340;2023-01-26T02:00:56;195.17;;;50.67;;
40847;SDS011;26570;50.962;5.340;2023-01-26T02:03:42;199.83;;;51.90;;
40847;SDS011;26570;50.962;5.340;2023-01-26T02:06:40;183.80;;;49.53;;
40847;SDS011;26570;50.962;5.340;2023-01-26T02:09:38;191.47;;;48.70;;
40847;SDS011;26570;50.962;5.340;2023-01-26T02:13:06;181.30;;;46.93;;
40847;SDS011;26570;50.962;5.340;2023-01-26T02:15:56;183.53;;;48.37;;
40847;SDS011;26570;50.962;5.340;2023-01-26T02:18:43;171.97;;;48.00;;
40847;SDS011;26570;50.962;5.340;2023-01-26T02:21:29;172.00;;;47.80;;
40847;SDS011;26570;50.962;5.340;2023-01-26T02:24:20;178.37;;;46.70;;
40847;SDS011;26570;50.962;5.340;2023-01-26T02:27:13;189.63;;;49.33;;
40847;SDS011;26570;50.962;5.340;2023-01-26T02:30:21;177.50;;;47.43;;
40847;SDS011;26570;50.962;5.340;2023-01-26T02:33:07;163.83;;;44.13;;
40847;SDS011;26570;50.962;5.340;2023-01-26T02:36:02;187.27;;;45.90;;
40847;SDS011;26570;50.962;5.340;2023-01-26T02:38:50;174.80;;;43.23;;
40847;SDS011;26570;50.962;5.340;2023-01-26T02:41:55;169.90;;;42.47;;
40847;SDS011;26570;50.962;5.340;2023-01-26T02:44:59;180.45;;;46.17;;
40847;SDS011;26570;50.962;5.340;2023-01-26T02:47:44;186.83;;;46.83;;
40847;SDS011;26570;50.962;5.340;2023-01-26T02:50:30;187.50;;;46.83;;
40847;SDS011;26570;50.962;5.340;2023-01-26T02:53:16;187.63;;;48.03;;
40847;SDS011;26570;50.962;5.340;2023-01-26T02:56:01;174.53;;;43.57;;
40847;SDS011;26570;50.962;5.340;2023-01-26T02:58:47;179.40;;;45.27;;
40847;SDS011;26570;50.962;5.340;2023-01-26T03:01:32;186.50;;;45.63;;
40847;SDS011;26570;50.962;5.340;2023-01-26T03:04:18;178.43;;;45.57;;
40847;SDS011;26570;50.962;5.340;2023-01-26T03:07:03;192.07;;;47.50;;
40847;SDS011;26570;50.962;5.340;2023-01-26T03:10:11;169.07;;;43.63;;
40847;SDS011;26570;50.962;5.340;2023-01-26T03:12:59;179.70;;;44.83;;
40847;SDS011;26570;50.962;5.340;2023-01-26T03:15:45;173.83;;;44.77;;
40847;SDS011;26570;50.962;5.340;2023-01-26T03:18:37;175.13;;;43.27;;
40847;SDS011;26570;50.962;5.340;2023-01-26T03:21:41;171.77;;;41.53;;
40847;SDS011;26570;50.962;5.340;2023-01-26T03:24:44;176.10;;;43.20;;
40847;SDS011;26570;50.962;5.340;2023-01-26T03:27:48;175.52;;;43.15;;
40847;SDS011;26570;50.962;5.340;2023-01-26T03:30:33;166.47;;;44.10;;
40847;SDS011;26570;50.962;5.340;2023-01-26T03:33:19;171.73;;;44.37;;
40847;SDS011;26570;50.962;5.340;2023-01-26T03:36:05;174.37;;;42.77;;
40847;SDS011;26570;50.962;5.340;2023-01-26T03:38:50;165.03;;;41.53;;
40847;SDS011;26570;50.962;5.340;2023-01-26T03:41:35;159.40;;;39.60;;
40847;SDS011;26570;50.962;5.340;2023-01-26T03:45:03;150.40;;;39.47;;
40847;SDS011;26570;50.962;5.340;2023-01-26T03:48:09;153.93;;;39.87;;
40847;SDS011;26570;50.962;5.340;2023-01-26T03:51:13;170.07;;;41.93;;
40847;SDS011;26570;50.962;5.340;2023-01-26T03:54:39;165.43;;;39.90;;
40847;SDS011;26570;50.962;5.340;2023-01-26T03:57:42;174.10;;;42.77;;
40847;SDS011;26570;50.962;5.340;2023-01-26T04:00:28;169.73;;;42.20;;
40847;SDS011;26570;50.962;5.340;2023-01-26T04:03:13;171.73;;;43.97;;
40847;SDS011;26570;50.962;5.340;2023-01-26T04:06:17;170.52;;;41.90;;
40847;SDS011;26570;50.962;5.340;2023-01-26T04:09:21;163.63;;;43.72;;
40847;SDS011;26570;50.962;5.340;2023-01-26T04:12:28;159.87;;;40.70;;
40847;SDS011;26570;50.962;5.340;2023-01-26T04:15:36;154.07;;;39.40;;
40847;SDS011;26570;50.962;5.340;2023-01-26T04:18:40;164.85;;;41.95;;
40847;SDS011;26570;50.962;5.340;2023-01-26T04:21:44;171.87;;;42.13;;
40847;SDS011;26570;50.962;5.340;2023-01-26T04:24:29;175.93;;;42.50;;
40847;SDS011;26570;50.962;5.340;2023-01-26T04:27:14;164.07;;;42.30;;
40847;SDS011;26570;50.962;5.340;2023-01-26T04:30:00;170.30;;;42.83;;
40847;SDS011;26570;50.962;5.340;2023-01-26T04:32:46;182.53;;;45.97;;
40847;SDS011;26570;50.962;5.340;2023-01-26T04:35:34;177.43;;;41.20;;
40847;SDS011;26570;50.962;5.340;2023-01-26T04:38:19;178.57;;;42.27;;
40847;SDS011;26570;50.962;5.340;2023-01-26T04:41:39;190.10;;;42.80;;
40847;SDS011;26570;50.962;5.340;2023-01-26T04:44:25;165.73;;;40.17;;
40847;SDS011;26570;50.962;5.340;2023-01-26T04:47:10;178.03;;;42.73;;
40847;SDS011;26570;50.962;5.340;2023-01-26T04:49:55;179.57;;;42.33;;
40847;SDS011;26570;50.962;5.340;2023-01-26T04:52:40;175.50;;;42.80;;
40847;SDS011;26570;50.962;5.340;2023-01-26T04:55:26;177.30;;;42.67;;
40847;SDS011;26570;50.962;5.340;2023-01-26T04:58:11;187.73;;;43.87;;
40847;SDS011;26570;50.962;5.340;2023-01-26T05:00:57;190.20;;;44.47;;
40847;SDS011;26570;50.962;5.340;2023-01-26T05:04:04;193.17;;;45.27;;
40847;SDS011;26570;50.962;5.340;2023-01-26T05:06:50;192.60;;;41.87;;
40847;SDS011;26570;50.962;5.340;2023-01-26T05:09:35;173.37;;;43.23;;
40847;SDS011;26570;50.962;5.340;2023-01-26T05:12:20;193.97;;;44.07;;
40847;SDS011;26570;50.962;5.340;2023-01-26T05:15:17;180.67;;;43.50;;
40847;SDS011;26570;50.962;5.340;2023-01-26T05:18:03;182.93;;;42.67;;
40847;SDS011;26570;50.962;5.340;2023-01-26T05:21:13;176.87;;;43.17;;
40847;SDS011;26570;50.962;5.340;2023-01-26T05:23:58;178.53;;;41.77;;
40847;SDS011;26570;50.962;5.340;2023-01-26T05:26:43;175.23;;;41.63;;
40847;SDS011;26570;50.962;5.340;2023-01-26T05:29:28;162.20;;;39.30;;
40847;SDS011;26570;50.962;5.340;2023-01-26T05:32:36;170.43;;;39.93;;
40847;SDS011;26570;50.962;5.340;2023-01-26T05:35:22;163.40;;;40.33;;
40847;SDS011;26570;50.962;5.340;2023-01-26T05:38:07;165.20;;;40.57;;
40847;SDS011;26570;50.962;5.340;2023-01-26T05:40:52;171.87;;;39.53;;
40847;SDS011;26570;50.962;5.340;2023-01-26T05:43:38;189.47;;;39.60;;
40847;SDS011;26570;50.962;5.340;2023-01-26T05:46:46;171.20;;;40.53;;
40847;SDS011;26570;50.962;5.340;2023-01-26T05:49:31;151.43;;;36.43;;
40847;SDS011;26570;50.962;5.340;2023-01-26T05:52:18;139.00;;;33.47;;
40847;SDS011;26570;50.962;5.340;2023-01-26T05:55:05;150.13;;;38.50;;
40847;SDS011;26570;50.962;5.340;2023-01-26T05:57:51;152.70;;;37.73;;
40847;SDS011;26570;50.962;5.340;2023-01-26T06:00:36;144.63;;;35.33;;
40847;SDS011;26570;50.962;5.340;2023-01-26T06:03:21;148.20;;;35.43;;
40847;SDS011;26570;50.962;5.340;2023-01-26T06:06:07;135.00;;;33.07;;
40847;SDS011;26570;50.962;5.340;2023-01-26T06:08:52;138.93;;;35.20;;
40847;SDS011;26570;50.962;5.340;2023-01-26T06:11:38;159.17;;;37.60;;
40847;SDS011;26570;50.962;5.340;2023-01-26T06:14:23;149.70;;;36.93;;
40847;SDS011;26570;50.962;5.340;2023-01-26T06:17:09;151.63;;;37.07;;
40847;SDS011;26570;50.962;5.340;2023-01-26T06:19:54;159.07;;;35.23;;
40847;SDS011;26570;50.962;5.340;2023-01-26T06:22:40;158.87;;;37.07;;
40847;SDS011;26570;50.962;5.340;2023-01-26T06:25:25;153.93;;;36.60;;
40847;SDS011;26570;50.962;5.340;2023-01-26T06:28:10;152.13;;;36.63;;
40847;SDS011;26570;50.962;5.340;2023-01-26T06:31:02;146.30;;;36.00;;
40847;SDS011;26570;50.962;5.340;2023-01-26T06:33:49;145.45;;;33.78;;
40847;SDS011;26570;50.962;5.340;2023-01-26T06:36:35;142.77;;;34.67;;
40847;SDS011;26570;50.962;5.340;2023-01-26T06:39:43;145.33;;;33.43;;
40847;SDS011;26570;50.962;5.340;2023-01-26T06:42:28;141.40;;;35.40;;
40847;SDS011;26570;50.962;5.340;2023-01-26T06:45:13;142.87;;;34.50;;
40847;SDS011;26570;50.962;5.340;2023-01-26T06:47:59;143.27;;;36.27;;
40847;SDS011;26570;50.962;5.340;2023-01-26T06:50:44;152.40;;;36.87;;
40847;SDS011;26570;50.962;5.340;2023-01-26T06:53:33;135.17;;;33.83;;
40847;SDS011;26570;50.962;5.340;2023-01-26T06:56:23;152.98;;;36.97;;
40847;SDS011;26570;50.962;5.340;2023-01-26T06:59:10;141.43;;;36.03;;
40847;SDS011;26570;50.962;5.340;2023-01-26T07:01:55;157.07;;;36.40;;
40847;SDS011;26570;50.962;5.340;2023-01-26T07:04:41;142.60;;;35.30;;
40847;SDS011;26570;50.962;5.340;2023-01-26T07:07:26;148.93;;;35.27;;
40847;SDS011;26570;50.962;5.340;2023-01-26T07:10:34;135.57;;;34.53;;
40847;SDS011;26570;50.962;5.340;2023-01-26T07:13:20;149.33;;;35.17;;
40847;SDS011;26570;50.962;5.340;2023-01-26T07:16:28;136.03;;;33.03;;
40847;SDS011;26570;50.962;5.340;2023-01-26T07:19:13;130.97;;;32.37;;
40847;SDS011;26570;50.962;5.340;2023-01-26T07:22:20;131.30;;;32.53;;
40847;SDS011;26570;50.962;5.340;2023-01-26T07:25:28;116.13;;;30.67;;
40847;SDS011;26570;50.962;5.340;2023-01-26T07:28:14;116.20;;;29.70;;
40847;SDS011;26570;50.962;5.340;2023-01-26T07:31:03;120.17;;;31.17;;
40847;SDS011;26570;50.962;5.340;2023-01-26T07:34:15;124.87;;;31.20;;
40847;SDS011;26570;50.962;5.340;2023-01-26T07:40:36;148.53;;;34.53;;
40847;SDS011;26570;50.962;5.340;2023-01-26T07:43:40;168.07;;;41.57;;
40847;SDS011;26570;50.962;5.340;2023-01-26T07:46:41;133.47;;;36.23;;
40847;SDS011;26570;50.962;5.340;2023-01-26T07:49:26;135.00;;;32.47;;
40847;SDS011;26570;50.962;5.340;2023-01-26T07:52:24;140.33;;;34.30;;
40847;SDS011;26570;50.962;5.340;2023-01-26T07:55:10;135.30;;;34.83;;
40847;SDS011;26570;50.962;5.340;2023-01-26T07:58:08;139.60;;;33.27;;
40847;SDS011;26570;50.962;5.340;2023-01-26T08:01:07;130.77;;;32.38;;
40847;SDS011;26570;50.962;5.340;2023-01-26T08:04:10;132.70;;;32.73;;
40847;SDS011;26570;50.962;5.340;2023-01-26T08:07:10;132.27;;;31.87;;
40847;SDS011;26570;50.962;5.340;2023-01-26T08:10:02;136.63;;;34.90;;
40847;SDS011;26570;50.962;5.340;2023-01-26T08:13:05;145.27;;;35.40;;
40847;SDS011;26570;50.962;5.340;2023-01-26T08:16:03;151.67;;;36.73;;
40847;SDS011;26570;50.962;5.340;2023-01-26T08:19:01;145.63;;;36.47;;
40847;SDS011;26570;50.962;5.340;2023-01-26T08:22:05;143.87;;;36.83;;
40847;SDS011;26570;50.962;5.340;2023-01-26T08:25:17;140.47;;;33.37;;
40847;SDS011;26570;50.962;5.340;2023-01-26T08:28:12;141.53;;;35.33;;
40847;SDS011;26570;50.962;5.340;2023-01-26T08:31:08;138.90;;;34.77;;
40847;SDS011;26570;50.962;5.340;2023-01-26T08:34:20;139.40;;;33.67;;
40847;SDS011;26570;50.962;5.340;2023-01-26T08:37:06;144.77;;;33.90;;
40847;SDS011;26570;50.962;5.340;2023-01-26T08:39:51;127.20;;;32.17;;
40847;SDS011;26570;50.962;5.340;2023-01-26T08:42:40;121.00;;;32.63;;
40847;SDS011;26570;50.962;5.340;2023-01-26T08:45:26;140.07;;;34.27;;
40847;SDS011;26570;50.962;5.340;2023-01-26T08:48:11;132.70;;;32.33;;
40847;SDS011;26570;50.962;5.340;2023-01-26T08:51:00;125.20;;;33.23;;
40847;SDS011;26570;50.962;5.340;2023-01-26T08:54:05;134.80;;;35.27;;
40847;SDS011;26570;50.962;5.340;2023-01-26T08:56:54;137.73;;;32.23;;
40847;SDS011;26570;50.962;5.340;2023-01-26T08:59:41;142.00;;;32.50;;
40847;SDS011;26570;50.962;5.340;2023-01-26T09:02:26;142.07;;;33.97;;
40847;SDS011;26570;50.962;5.340;2023-01-26T09:05:12;122.73;;;30.83;;
40847;SDS011;26570;50.962;5.340;2023-01-26T09:11:29;117.00;;;31.27;;
40847;SDS011;26570;50.962;5.340;2023-01-26T09:14:15;118.40;;;29.67;;
40847;SDS011;26570;50.962;5.340;2023-01-26T09:17:01;116.63;;;32.43;;
40847;SDS011;26570;50.962;5.340;2023-01-26T09:19:46;119.93;;;31.23;;
40847;SDS011;26570;50.962;5.340;2023-01-26T09:22:34;111.47;;;30.60;;
40847;SDS011;26570;50.962;5.340;2023-01-26T09:25:27;112.57;;;28.73;;
40847;SDS011;26570;50.962;5.340;2023-01-26T09:28:25;122.80;;;31.27;;
40847;SDS011;26570;50.962;5.340;2023-01-26T09:31:10;104.10;;;29.10;;
40847;SDS011;26570;50.962;5.340;2023-01-26T09:34:41;101.80;;;29.07;;
40847;SDS011;26570;50.962;5.340;2023-01-26T09:37:37;101.63;;;28.30;;
40847;SDS011;26570;50.962;5.340;2023-01-26T09:49:27;80.97;;;26.33;;
40847;SDS011;26570;50.962;5.340;2023-01-26T09:52:55;84.03;;;26.43;;
40847;SDS011;26570;50.962;5.340;2023-01-26T09:55:53;84.33;;;25.07;;
40847;SDS011;26570;50.962;5.340;2023-01-26T09:58:42;75.00;;;23.63;;
40847;SDS011;26570;50.962;5.340;2023-01-26T10:09:20;73.90;;;21.92;;
40847;SDS011;26570;50.962;5.340;2023-01-26T10:12:22;69.63;;;23.70;;
40847;SDS011;26570;50.962;5.340;2023-01-26T10:15:28;70.30;;;22.87;;
40847;SDS011;26570;50.962;5.340;2023-01-26T10:21:44;65.57;;;21.47;;
40847;SDS011;26570;50.962;5.340;2023-01-26T10:24:32;63.70;;;20.90;;
40847;SDS011;26570;50.962;5.340;2023-01-26T10:27:22;61.03;;;20.20;;
40847;SDS011;26570;50.962;5.340;2023-01-26T10:30:24;52.63;;;19.30;;
40847;SDS011;26570;50.962;5.340;2023-01-26T10:33:13;55.70;;;17.93;;
40847;SDS011;26570;50.962;5.340;2023-01-26T10:36:45;45.87;;;15.83;;
40847;SDS011;26570;50.962;5.340;2023-01-26T10:39:42;45.90;;;16.73;;
40847;SDS011;26570;50.962;5.340;2023-01-26T10:43:10;47.30;;;16.23;;
40847;SDS011;26570;50.962;5.340;2023-01-26T10:46:05;52.83;;;17.57;;
40847;SDS011;26570;50.962;5.340;2023-01-26T10:52:07;49.63;;;15.63;;
40847;SDS011;26570;50.962;5.340;2023-01-26T10:55:15;53.20;;;18.93;;
40847;SDS011;26570;50.962;5.340;2023-01-26T11:01:55;44.67;;;16.67;;
40847;SDS011;26570;50.962;5.340;2023-01-26T11:07:52;59.50;;;18.63;;
40847;SDS011;26570;50.962;5.340;2023-01-26T11:10:50;62.87;;;19.13;;
40847;SDS011;26570;50.962;5.340;2023-01-26T11:13:36;60.70;;;19.57;;
40847;SDS011;26570;50.962;5.340;2023-01-26T11:16:23;58.07;;;20.13;;
40847;SDS011;26570;50.962;5.340;2023-01-26T11:19:16;56.73;;;19.10;;
40847;SDS011;26570;50.962;5.340;2023-01-26T11:22:12;56.50;;;18.33;;
40847;SDS011;26570;50.962;5.340;2023-01-26T11:25:20;57.77;;;17.97;;
40847;SDS011;26570;50.962;5.340;2023-01-26T11:28:19;56.63;;;17.17;;
40847;SDS011;26570;50.962;5.340;2023-01-26T11:31:30;56.00;;;18.50;;
40847;SDS011;26570;50.962;5.340;2023-01-26T11:41:02;47.87;;;16.23;;
40847;SDS011;26570;50.962;5.340;2023-01-26T11:44:00;52.53;;;15.40;;
40847;SDS011;26570;50.962;5.340;2023-01-26T11:50:24;43.93;;;14.07;;
40847;SDS011;26570;50.962;5.340;2023-01-26T11:56:30;40.80;;;13.07;;
40847;SDS011;26570;50.962;5.340;2023-01-26T11:59:42;38.23;;;13.90;;
40847;SDS011;26570;50.962;5.340;2023-01-26T12:02:38;42.33;;;13.77;;
40847;SDS011;26570;50.962;5.340;2023-01-26T12:05:42;39.07;;;14.03;;
40847;SDS011;26570;50.962;5.340;2023-01-26T12:11:44;36.73;;;12.87;;
40847;SDS011;26570;50.962;5.340;2023-01-26T12:21:04;36.05;;;14.07;;
40847;SDS011;26570;50.962;5.340;2023-01-26T12:24:19;34.80;;;13.07;;
40847;SDS011;26570;50.962;5.340;2023-01-26T12:27:46;33.53;;;12.33;;
40847;SDS011;26570;50.962;5.340;2023-01-26T12:31:21;36.83;;;11.97;;
40847;SDS011;26570;50.962;5.340;2023-01-26T12:34:17;34.95;;;12.70;;
40847;SDS011;26570;50.962;5.340;2023-01-26T12:40:47;38.08;;;13.35;;
40847;SDS011;26570;50.962;5.340;2023-01-26T12:44:09;44.17;;;13.47;;
40847;SDS011;26570;50.962;5.340;2023-01-26T12:47:31;42.80;;;14.77;;
40847;SDS011;26570;50.962;5.340;2023-01-26T12:50:37;44.60;;;14.37;;
40847;SDS011;26570;50.962;5.340;2023-01-26T12:53:32;40.43;;;15.60;;
40847;SDS011;26570;50.962;5.340;2023-01-26T13:00:26;59.60;;;16.27;;
40847;SDS011;26570;50.962;5.340;2023-01-26T13:03:19;64.17;;;18.93;;
40847;SDS011;26570;50.962;5.340;2023-01-26T13:06:38;59.97;;;18.27;;
40847;SDS011;26570;50.962;5.340;2023-01-26T13:09:39;76.10;;;20.10;;
40847;SDS011;26570;50.962;5.340;2023-01-26T13:13:26;70.80;;;20.48;;
40847;SDS011;26570;50.962;5.340;2023-01-26T13:19:01;82.97;;;21.37;;
40847;SDS011;26570;50.962;5.340;2023-01-26T13:21:47;82.63;;;23.77;;
40847;SDS011;26570;50.962;5.340;2023-01-26T13:24:57;85.27;;;23.50;;
40847;SDS011;26570;50.962;5.340;2023-01-26T13:28:02;88.93;;;22.90;;
40847;SDS011;26570;50.962;5.340;2023-01-26T13:31:03;81.70;;;21.93;;
40847;SDS011;26570;50.962;5.340;2023-01-26T13:41:32;87.50;;;25.07;;
40847;SDS011;26570;50.962;5.340;2023-01-26T13:44:22;84.77;;;23.20;;
40847;SDS011;26570;50.962;5.340;2023-01-26T13:47:50;92.40;;;22.77;;
40847;SDS011;26570;50.962;5.340;2023-01-26T13:51:25;80.47;;;24.47;;
40847;SDS011;26570;50.962;5.340;2023-01-26T13:54:15;94.83;;;24.60;;
40847;SDS011;26570;50.962;5.340;2023-01-26T13:59:58;89.00;;;25.03;;
40847;SDS011;26570;50.962;5.340;2023-01-26T14:02:54;88.87;;;24.30;;
40847;SDS011;26570;50.962;5.340;2023-01-26T14:05:41;88.00;;;25.33;;
40847;SDS011;26570;50.962;5.340;2023-01-26T14:09:03;97.67;;;26.30;;
40847;SDS011;26570;50.962;5.340;2023-01-26T14:12:19;90.57;;;25.67;;
40847;SDS011;26570;50.962;5.340;2023-01-26T14:15:29;91.27;;;26.03;;
40847;SDS011;26570;50.962;5.340;2023-01-26T14:18:29;96.77;;;24.40;;
40847;SDS011;26570;50.962;5.340;2023-01-26T14:21:58;103.83;;;25.07;;
40847;SDS011;26570;50.962;5.340;2023-01-26T14:25:11;101.50;;;24.90;;
40847;SDS011;26570;50.962;5.340;2023-01-26T14:28:04;99.13;;;24.50;;
40847;SDS011;26570;50.962;5.340;2023-01-26T14:31:21;97.27;;;24.53;;
40847;SDS011;26570;50.962;5.340;2023-01-26T14:34:50;84.17;;;23.00;;
40847;SDS011;26570;50.962;5.340;2023-01-26T14:41:34;85.10;;;23.57;;
40847;SDS011;26570;50.962;5.340;2023-01-26T14:44:32;95.43;;;23.00;;
40847;SDS011;26570;50.962;5.340;2023-01-26T14:47:57;100.83;;;23.10;;
40847;SDS011;26570;50.962;5.340;2023-01-26T14:51:17;96.00;;;22.53;;
40847;SDS011;26570;50.962;5.340;2023-01-26T14:54:23;88.07;;;22.90;;
40847;SDS011;26570;50.962;5.340;2023-01-26T15:00:03;78.97;;;21.53;;
40847;SDS011;26570;50.962;5.340;2023-01-26T15:02:56;89.53;;;22.58;;
40847;SDS011;26570;50.962;5.340;2023-01-26T15:05:45;86.27;;;21.70;;
40847;SDS011;26570;50.962;5.340;2023-01-26T15:09:00;79.80;;;20.80;;
40847;SDS011;26570;50.962;5.340;2023-01-26T15:12:27;80.13;;;20.57;;
40847;SDS011;26570;50.962;5.340;2023-01-26T15:18:56;80.68;;;19.33;;
40847;SDS011;26570;50.962;5.340;2023-01-26T15:22:23;80.87;;;20.50;;
40847;SDS011;26570;50.962;5.340;2023-01-26T15:25:17;76.37;;;20.77;;
40847;SDS011;26570;50.962;5.340;2023-01-26T15:28:19;74.60;;;20.27;;
40847;SDS011;26570;50.962;5.340;2023-01-26T15:31:19;72.97;;;20.53;;
40847;SDS011;26570;50.962;5.340;2023-01-26T15:35:01;84.47;;;21.33;;
40847;SDS011;26570;50.962;5.340;2023-01-26T15:38:14;85.67;;;22.17;;
40847;SDS011;26570;50.962;5.340;2023-01-26T15:41:04;77.73;;;22.17;;
40847;SDS011;26570;50.962;5.340;2023-01-26T15:43:53;69.23;;;21.70;;
40847;SDS011;26570;50.962;5.340;2023-01-26T15:46:43;80.33;;;21.20;;
40847;SDS011;26570;50.962;5.340;2023-01-26T15:49:34;74.17;;;19.13;;
40847;SDS011;26570;50.962;5.340;2023-01-26T15:52:26;76.57;;;20.77;;
40847;SDS011;26570;50.962;5.340;2023-01-26T15:55:20;71.97;;;21.07;;
40847;SDS011;26570;50.962;5.340;2023-01-26T15:58:11;83.47;;;21.17;;
40847;SDS011;26570;50.962;5.340;2023-01-26T16:01:32;85.30;;;23.40;;
40847;SDS011;26570;50.962;5.340;2023-01-26T16:04:21;87.47;;;22.27;;
40847;SDS011;26570;50.962;5.340;2023-01-26T16:07:50;97.53;;;22.80;;
40847;SDS011;26570;50.962;5.340;2023-01-26T16:10:37;87.03;;;22.57;;
40847;SDS011;26570;50.962;5.340;2023-01-26T16:13:27;88.87;;;22.43;;
40847;SDS011;26570;50.962;5.340;2023-01-26T16:16:14;100.43;;;24.53;;
40847;SDS011;26570;50.962;5.340;2023-01-26T16:19:14;95.37;;;24.20;;
40847;SDS011;26570;50.962;5.340;2023-01-26T16:22:43;96.77;;;22.87;;
40847;SDS011;26570;50.962;5.340;2023-01-26T16:26:30;94.72;;;21.92;;
40847;SDS011;26570;50.962;5.340;2023-01-26T16:30:13;87.23;;;22.90;;
40847;SDS011;26570;50.962;5.340;2023-01-26T16:33:12;81.67;;;20.70;;
40847;SDS011;26570;50.962;5.340;2023-01-26T16:36:12;116.63;;;22.73;;
40847;SDS011;26570;50.962;5.340;2023-01-26T16:39:40;93.70;;;21.77;;
40847;SDS011;26570;50.962;5.340;2023-01-26T16:42:30;103.10;;;24.03;;
40847;SDS011;26570;50.962;5.340;2023-01-26T16:46:00;125.30;;;25.50;;
40847;SDS011;26570;50.962;5.340;2023-01-26T16:49:20;131.57;;;27.80;;
40847;SDS011;26570;50.962;5.340;2023-01-26T16:52:20;122.63;;;26.33;;
40847;SDS011;26570;50.962;5.340;2023-01-26T16:55:56;161.30;;;28.17;;
40847;SDS011;26570;50.962;5.340;2023-01-26T17:01:45;306.47;;;29.20;;
40847;SDS011;26570;50.962;5.340;2023-01-26T17:05:12;373.80;;;29.50;;
40847;SDS011;26570;50.962;5.340;2023-01-26T17:08:23;199.50;;;26.50;;
40847;SDS011;26570;50.962;5.340;2023-01-26T17:11:17;162.63;;;28.77;;
40847;SDS011;26570;50.962;5.340;2023-01-26T17:14:31;121.77;;;26.73;;
40847;SDS011;26570;50.962;5.340;2023-01-26T17:18:28;104.60;;;24.40;;
40847;SDS011;26570;50.962;5.340;2023-01-26T17:21:18;108.47;;;27.33;;
40847;SDS011;26570;50.962;5.340;2023-01-26T17:24:17;107.30;;;31.13;;
40847;SDS011;26570;50.962;5.340;2023-01-26T17:27:16;113.53;;;27.77;;
40847;SDS011;26570;50.962;5.340;2023-01-26T17:30:53;116.40;;;29.37;;
40847;SDS011;26570;50.962;5.340;2023-01-26T17:36:56;78.53;;;21.50;;
40847;SDS011;26570;50.962;5.340;2023-01-26T17:39:46;87.20;;;18.53;;
40847;SDS011;26570;50.962;5.340;2023-01-26T17:42:35;88.10;;;19.00;;
40847;SDS011;26570;50.962;5.340;2023-01-26T17:45:20;73.93;;;16.43;;
40847;SDS011;26570;50.962;5.340;2023-01-26T17:48:06;61.20;;;15.03;;
40847;SDS011;26570;50.962;5.340;2023-01-26T17:51:15;69.40;;;14.00;;
40847;SDS011;26570;50.962;5.340;2023-01-26T17:54:07;71.63;;;15.13;;
40847;SDS011;26570;50.962;5.340;2023-01-26T17:56:52;61.73;;;14.57;;
40847;SDS011;26570;50.962;5.340;2023-01-26T18:00:00;58.47;;;14.33;;
40847;SDS011;26570;50.962;5.340;2023-01-26T18:02:46;58.23;;;14.10;;
40847;SDS011;26570;50.962;5.340;2023-01-26T18:05:31;57.87;;;13.17;;
40847;SDS011;26570;50.962;5.340;2023-01-26T18:08:16;59.03;;;9.73;;
40847;SDS011;26570;50.962;5.340;2023-01-26T18:11:03;51.97;;;11.10;;
40847;SDS011;26570;50.962;5.340;2023-01-26T18:13:53;46.67;;;10.83;;
40847;SDS011;26570;50.962;5.340;2023-01-26T18:16:38;42.57;;;11.30;;
40847;SDS011;26570;50.962;5.340;2023-01-26T18:19:24;29.70;;;8.43;;
40847;SDS011;26570;50.962;5.340;2023-01-26T18:22:10;48.63;;;9.70;;
40847;SDS011;26570;50.962;5.340;2023-01-26T18:25:00;35.93;;;7.77;;
40847;SDS011;26570;50.962;5.340;2023-01-26T18:27:45;35.30;;;6.43;;
40847;SDS011;26570;50.962;5.340;2023-01-26T18:30:31;25.33;;;6.43;;
40847;SDS011;26570;50.962;5.340;2023-01-26T18:33:19;43.67;;;5.80;;
40847;SDS011;26570;50.962;5.340;2023-01-26T18:36:05;36.77;;;4.77;;
40847;SDS011;26570;50.962;5.340;2023-01-26T18:38:58;25.80;;;4.77;;
40847;SDS011;26570;50.962;5.340;2023-01-26T18:41:45;25.77;;;5.53;;
40847;SDS011;26570;50.962;5.340;2023-01-26T18:44:30;31.67;;;5.40;;
40847;SDS011;26570;50.962;5.340;2023-01-26T18:47:38;15.17;;;3.53;;
40847;SDS011;26570;50.962;5.340;2023-01-26T18:50:22;21.00;;;2.40;;
40847;SDS011;26570;50.962;5.340;2023-01-26T18:53:11;21.07;;;2.67;;
40847;SDS011;26570;50.962;5.340;2023-01-26T18:56:00;21.50;;;3.13;;
40847;SDS011;26570;50.962;5.340;2023-01-26T18:58:49;28.10;;;4.13;;
40847;SDS011;26570;50.962;5.340;2023-01-26T19:01:39;20.30;;;2.80;;
40847;SDS011;26570;50.962;5.340;2023-01-26T19:04:24;27.43;;;6.13;;
40847;SDS011;26570;50.962;5.340;2023-01-26T19:07:09;31.77;;;5.57;;
40847;SDS011;26570;50.962;5.340;2023-01-26T19:09:58;25.43;;;5.53;;
40847;SDS011;26570;50.962;5.340;2023-01-26T19:12:44;32.87;;;7.40;;
40847;SDS011;26570;50.962;5.340;2023-01-26T19:15:34;24.97;;;4.43;;
40847;SDS011;26570;50.962;5.340;2023-01-26T19:18:24;15.37;;;2.33;;
40847;SDS011;26570;50.962;5.340;2023-01-26T19:21:11;31.00;;;2.70;;
40847;SDS011;26570;50.962;5.340;2023-01-26T19:23:56;16.80;;;2.83;;
40847;SDS011;26570;50.962;5.340;2023-01-26T19:26:42;21.80;;;3.03;;
40847;SDS011;26570;50.962;5.340;2023-01-26T19:29:49;13.80;;;2.00;;
40847;SDS011;26570;50.962;5.340;2023-01-26T19:32:34;22.87;;;1.40;;
40847;SDS011;26570;50.962;5.340;2023-01-26T19:35:20;15.77;;;1.13;;
40847;SDS011;26570;50.962;5.340;2023-01-26T19:38:05;20.30;;;1.13;;
40847;SDS011;26570;50.962;5.340;2023-01-26T19:40:50;17.37;;;1.07;;
40847;SDS011;26570;50.962;5.340;2023-01-26T19:43:38;19.53;;;1.10;;
40847;SDS011;26570;50.962;5.340;2023-01-26T19:46:25;14.63;;;1.30;;